• Join FlightAware (Why Join?)
  • Login
  • US Flag 
01:31PM EST


 

Airport Tracker/Info


-or-


 

Live Flight TrackerFlight Track Log ✈ QFA1074 ✈ 04-Sep-2013 ✈ YPPH / PER - YBRM / BME

Flight Track Log - Related Links

Times and Time Zones

All times are in EDT time to prevent confusion due to time zone crossing. See the QFA1074 flight status page for this flight to view local times or setup timezone preferences in your user account.

Time Position Orientation Groundspeed Altitude Reporting Facility
EDT Latitude Longitude Course Direction KTS MPH feet Rate Location/Type
10:08PM -31.9400 115.9650 157° South 135 155  Level FlightAware
10:08PM -31.9580 115.9600 193° South 149 171 500 1,560 Climbing FlightAware
10:09PM -31.9690 115.9570 193° South 148 170 1,100 1,740 Climbing FlightAware
10:09PM -31.9850 115.9520 195° South 183 211 1,600 1,500 Climbing FlightAware
10:09PM -31.9990 115.9490 190° South 208 239 2,000 2,220 Climbing FlightAware
10:10PM -32.0230 115.9580 162° South 224 258 3,100 2,520 Climbing FlightAware
10:10PM -32.0300 115.9650 140° Southeast 226 260 3,500 2,100 Climbing FlightAware
10:10PM -32.0370 115.9770 125° Southeast 247 284 3,800 1,200 Climbing FlightAware
10:10PM -32.0400 115.9830 121° Southeast 258 297 3,800 1,200 Level FlightAware
10:10PM -32.0430 115.9970 104° East 272 313 4,100 2,760 Climbing FlightAware
10:10PM -32.0490 116.0260 104° East 278 320 5,200 3,360 Climbing FlightAware
10:11PM -32.0560 116.0570 105° East 278 320 6,400 3,120 Climbing FlightAware
10:11PM -32.0630 116.0870 105° East 293 337 7,300 3,120 Climbing FlightAware
10:12PM -32.0720 116.1260 105° East 299 344 8,700 3,300 Climbing FlightAware
10:12PM -32.0790 116.1580 104° East 303 349 9,800 2,820 Climbing FlightAware
10:12PM -32.0860 116.1900 104° East 320 368 10,600 1,560 Climbing FlightAware
10:13PM -32.0800 116.2230 78° East 356 410 10,900 1,140 Climbing FlightAware
10:13PM -32.0690 116.2420 56° Northeast 372 428 11,200 1,920 Climbing FlightAware
10:14PM -32.0050 116.3200 46° Northeast 397 457 12,900 1,920 Climbing FlightAware
10:14PM -31.9720 116.3620 47° Northeast 421 484 13,900 2,760 Climbing FlightAware
10:15PM -31.8990 116.4520 46° Northeast 428 493 16,500 2,940 Climbing FlightAware
10:15PM -31.8510 116.5130 47° Northeast 429 494 18,000 2,220 Climbing FlightAware
10:16PM -31.8020 116.5730 46° Northeast 450 518 19,100 1,800 Climbing FlightAware
10:17PM -31.7510 116.6360 46° Northeast 465 535 20,100 2,100 Climbing FlightAware
10:17PM -31.6890 116.6840 33° Northeast 433 498 21,600 2,280 Climbing FlightAware
10:18PM -31.6240 116.7160 23° Northeast 433 498 22,800 1,800 Climbing FlightAware
10:18PM -31.5580 116.7480 22° Northeast 454 522 23,700 1,560 Climbing FlightAware
10:19PM -31.4980 116.7780 23° Northeast 454 522 24,500 1,800 Climbing FlightAware
10:20PM -31.4210 116.8170 23° Northeast 455 524 25,800 1,980 Climbing FlightAware
10:20PM -31.3500 116.8510 22° Northeast 458 527 27,000 1,860 Climbing FlightAware
10:21PM -31.2820 116.8850 23° Northeast 458 527 28,000 2,040 Climbing FlightAware
10:21PM -31.2140 116.9190 23° Northeast 439 505 29,400 2,280 Climbing FlightAware
10:22PM -31.1500 116.9510 23° Northeast 436 502 30,700 2,220 Climbing FlightAware
10:22PM -31.0840 116.9830 23° Northeast 417 480 32,000 1,860 Climbing FlightAware
10:23PM -31.0210 117.0130 22° Northeast 416 479 32,900 1,020 Climbing FlightAware
10:24PM -30.9570 117.0440 23° Northeast 434 499 33,200 660 Climbing FlightAware
10:24PM -30.8940 117.0750 23° Northeast 441 507 33,700 1,080 Climbing FlightAware
10:25PM -30.8260 117.1090 23° Northeast 439 505 34,500 1,260 Climbing FlightAware
10:25PM -30.7610 117.1410 23° Northeast 437 503 35,200 1,020 Climbing FlightAware
10:26PM -30.6950 117.1730 23° Northeast 432 497 35,700 780 Climbing FlightAware
10:27PM -30.6300 117.2040 22° Northeast 438 504 36,100 660 Climbing FlightAware
10:27PM -30.5620 117.2370 23° Northeast 451 519 36,500 660 Climbing FlightAware
10:28PM -30.4930 117.2710 23° Northeast 454 522 36,900 420 Climbing FlightAware
10:28PM -30.4240 117.3040 22° Northeast 451 519 37,000 60 Climbing FlightAware
10:29PM -30.3440 117.3420 22° Northeast 453 521 37,000  Level FlightAware
10:30PM -30.2750 117.3760 23° Northeast 454 522 37,000  Level FlightAware
10:30PM -30.2070 117.4090 23° Northeast 452 520 37,000  Level FlightAware
10:31PM -30.1280 117.4470 23° Northeast 452 520 37,000  Level FlightAware
10:32PM -30.0560 117.4810 22° Northeast 456 525 37,000  Level FlightAware
10:32PM -29.9890 117.5120 22° Northeast 456 525 37,000  Level FlightAware
10:33PM -29.9290 117.5400 22° Northeast 456 525 37,000  Level FlightAware
10:34PM -29.8240 117.5920 23° Northeast 451 519 37,000  Level FlightAware
10:34PM -29.7370 117.6330 22° Northeast 450 518 37,000  Level FlightAware
10:35PM -29.6780 117.6610 22° Northeast 450 518 37,000  Level FlightAware
10:35PM -29.6170 117.6890 22° Northeast 450 518 37,000  Level FlightAware
10:36PM -29.5580 117.7160 22° Northeast 450 518 37,000  Level FlightAware
10:37PM -29.4530 117.7680 23° Northeast 448 516 37,000  Level FlightAware
10:37PM -29.3640 117.8110 23° Northeast 440 506 37,000  Level FlightAware
10:38PM -29.3010 117.8410 23° Northeast 440 506 37,000  Level FlightAware
10:39PM -29.1880 117.8930 22° Northeast 452 520 37,000  Level FlightAware
10:40PM -29.1090 117.9300 22° Northeast 454 522 37,000  Level FlightAware
10:40PM -29.0500 117.9580 23° Northeast 456 525 37,000  Level FlightAware
10:41PM -28.9830 117.9890 22° Northeast 456 525 37,000  Level FlightAware
10:41PM -28.9230 118.0170 22° Northeast 456 525 37,000  Level FlightAware
10:42PM -28.8630 118.0440 22° Northeast 456 525 37,000  Level FlightAware
10:43PM -28.8070 118.0710 23° Northeast 456 525 37,000  Level FlightAware
10:43PM -28.7470 118.0980 22° Northeast 456 525 37,000  Level FlightAware
10:44PM -28.6870 118.1260 22° Northeast 456 525 37,000  Level FlightAware
10:44PM -28.6310 118.1520 22° Northeast 456 525 37,000  Level FlightAware
10:45PM -28.5710 118.1790 22° Northeast 456 525 37,000  Level FlightAware
10:46PM -28.5110 118.2070 22° Northeast 456 525 37,000  Level FlightAware
10:46PM -28.4510 118.2340 22° Northeast 456 525 37,000  Level FlightAware
10:47PM -28.3910 118.2620 22° Northeast 456 525 37,000  Level FlightAware
10:47PM -28.3310 118.2890 22° Northeast 456 525 37,000  Level FlightAware
10:48PM -28.2720 118.3170 23° Northeast 456 525 37,000  Level FlightAware
10:49PM -28.2100 118.3450 22° Northeast 456 525 37,000  Level FlightAware
10:49PM -28.1500 118.3720 22° Northeast 456 525 37,000  Level FlightAware
10:50PM -28.0900 118.4000 22° Northeast 456 525 37,000  Level FlightAware
10:52PM -27.9023 118.4888 21° North  Level FlightAware Approximate
10:53PM -27.7885 118.5383 21° North  Level FlightAware Approximate
10:54PM -27.6745 118.5876 21° North  Level FlightAware Approximate
10:55PM -27.5606 118.6368 21° North  Level FlightAware Approximate
10:56PM -27.4467 118.6860 21° North  Level FlightAware Approximate
10:57PM -27.3327 118.7350 21° North  Level FlightAware Approximate
10:58PM -27.2188 118.7839 21° North  Level FlightAware Approximate
10:59PM -27.1048 118.8328 21° North  Level FlightAware Approximate
11:00PM -26.9908 118.8815 21° North  Level FlightAware Approximate
11:01PM -26.8768 118.9301 21° North  Level FlightAware Approximate
11:02PM -26.7627 118.9787 21° North  Level FlightAware Approximate
11:03PM -26.6487 119.0271 21° North  Level FlightAware Approximate
11:04PM -26.5346 119.0755 21° North  Level FlightAware Approximate
11:05PM -26.4205 119.1237 21° North  Level FlightAware Approximate
11:06PM -26.3064 119.1719 21° North  Level FlightAware Approximate
11:07PM -26.1923 119.2199 21° North  Level FlightAware Approximate
11:08PM -26.0781 119.2679 21° North  Level FlightAware Approximate
11:09PM -25.9640 119.3157 21° North  Level FlightAware Approximate
11:10PM -25.8498 119.3635 21° North  Level FlightAware Approximate
11:11PM -25.7356 119.4112 21° North  Level FlightAware Approximate
11:12PM -25.6214 119.4588 21° North  Level FlightAware Approximate
11:12PM -25.2096 119.6307 21° North 469 540 37,200  Level Aus ATC (RADAR)
11:14PM -24.8902 119.7632 21° North 477 549 37,200  Level Aus ATC (RADAR)
11:16PM -24.6972 119.8413 20° North 468 539 37,200  Level Aus ATC (RADAR)
11:17PM -24.5338 119.9079 20° North 466 536 37,200  Level Aus ATC (RADAR)
11:20PM -24.1952 120.0458 20° North 471 542 37,200  Level Aus ATC (RADAR)
11:21PM -24.0623 120.0995 20° North 469 540 37,200  Level Aus ATC (RADAR)
11:23PM -23.8434 120.1878 20° North 480 552 37,200  Level Aus ATC (RADAR)
11:24PM -23.6466 120.2669 20° North 483 556 37,200  Level Aus ATC (RADAR)
11:26PM -23.5137 120.3205 20° North 472 543 37,200  Level Aus ATC (RADAR)
11:27PM -23.3789 120.3746 20° North 474 545 37,200  Level Aus ATC (RADAR)
11:28PM -23.1607 120.4619 20° North 475 547 37,200  Level Aus ATC (RADAR)
11:30PM -22.9727 120.5355 20° North 474 545 37,200  Level Aus ATC (RADAR)
11:31PM -22.8275 120.5927 20° North 475 547 37,200  Level Aus ATC (RADAR)
11:32PM -22.6943 120.6470 21° North 471 542 37,200  Level Aus ATC (RADAR)
11:34PM -22.4761 120.7331 20° North 474 545 37,200  Level Aus ATC (RADAR)
11:36PM -22.2669 120.8151 20° North 476 548 37,200  Level Aus ATC (RADAR)
11:37PM -22.1006 120.8810 20° North 475 547 37,200 -60 Level Aus ATC (RADAR)
11:38PM -21.9123 120.9538 20° North 476 548 37,100 -60 Descending Aus ATC (RADAR)
11:40PM -21.7463 121.0184 20° North 473 544 37,100  Level Aus ATC (RADAR)
11:42PM -21.4148 121.1463 20° North 470 541 37,100  Level Aus ATC (RADAR)
11:44PM -21.2711 121.2030 20° North 470 541 37,100  Level Aus ATC (RADAR)
11:51PM -20.3592 121.5560 20° North 37,000 -60 Descending Aus ATC (Calculated)
11:53PM -20.1316 121.6435 20° North  Level FlightAware Approximate
11:53PM -20.0586 121.6712 20° North 9,300  Level Aus ATC (Calculated)
11:54PM -20.0168 121.6874 20° North  Level FlightAware Approximate
11:55PM -19.9223 121.7338 23° Northeast  Level FlightAware Approximate
11:55PM -19.9099 121.7279 20° North 9,300  Level Aus ATC (Calculated)
11:56PM -19.7259 121.7978 200° South 9,300  Level Aus ATC (Calculated)
11:58PM -19.8753 121.7411 200° South  Level FlightAware Approximate
11:59PM -19.9902 121.6975 200° South  Level FlightAware Approximate
11:59PM -19.4241 121.9122 20° North 9,300  Level Aus ATC (Calculated)
11:59PM -19.3624 121.9355 200° South 9,300  Level Aus ATC (Calculated)
12:01AM -19.5118 121.8791 200° South  Level FlightAware Approximate
12:01AM -19.1891 122.0010 200° South 9,300  Level Aus ATC (Calculated)
12:02AM -19.6267 121.8356 200° South  Level FlightAware Approximate
12:02AM -19.0012 122.0717 319° Northwest 9,300  Level Aus ATC (Calculated)
12:03AM -18.9688 122.0421 20° North  Level Estimated
12:04AM -18.8568 122.0930 23° Northeast  Level FlightAware Approximate
12:05AM -18.7349 122.1718 20° North  Level FlightAware Approximate
12:05AM -18.7018 122.1842 20° North 9,300  Level Aus ATC (Calculated)
12:07AM -18.5504 122.2409 20° North  Level FlightAware Approximate
12:08AM -18.4354 122.2839 20° North  Level FlightAware Approximate
12:08AM -18.3761 122.2771 191° South 500  Level Aus ATC (Calculated)
12:09AM -18.5503 122.2407 200° South  Level FlightAware Approximate
12:10AM -18.5435 122.2934 175° South  Level FlightAware Approximate
12:11AM -18.4239 122.2818 355° North  Level FlightAware Approximate
12:11AM -18.1935 122.2554 174° South  Level Aus ATC (Calculated)
12:12AM -18.5435 122.2934 175° South  Level FlightAware Approximate
12:13AM -18.3633 122.2747 174° South  Level FlightAware Approximate
12:14AM -18.4846 122.2885 174° South  Level FlightAware Approximate
12:14AM -17.9496 122.2277 360° North  Level Aus ATC (Calculated)
12:14AM -17.9496 122.2277 174° South  Level Aus ATC (Calculated)
12:15AM -18.3633 122.2747 354° North  Level FlightAware Approximate
12:16AM -17.9447 122.2317 355° North  Level Estimated
12:17AM -17.9447 122.2317 115° Southeast  Level Estimated
12:18AM -17.9447 122.2317 115° Southeast  Level Estimated